Terminal Aerodrome Forecast
Issued by NWS

Home | Current Version | Previous Version | Text Only | Print | Product List | Glossary On
Versions: 1 2 3 4 5 6 7 8 9 10 11 12 13
000
FTUS45 KSLC 271120
TAFBCE
TAF
KBCE 271120Z 2712/2812 25007KT P6SM BKN070
     FM271800 22012G18KT P6SM SCT070
     FM280300 26008KT P6SM FEW070=

USA.gov is the U.S. government's official web portal to all federal, state and local government web resources and services.